Time;durP1;ratioP1;P1;durP2;ratioP2;P2;SDS_P1;SDS_P2;PMS_P1;PMS_P2;Temp;Humidity;BMP_temperature;BMP_pressure;BME280_temperature;BME280_humidity;BME280_pressure;Samples;Min_cycle;Max_cycle;Signal;HPM_P1;HPM_P2
2023/10/06 00:02:30;;;;;;;12.45;2.47;;;;;;;14.84;100.00;99968.38;5147298;27;20057;-67
2023/10/06 00:04:57;;;;;;;5.72;1.38;;;;;;;14.82;100.00;99965.88;5128752;27;20491;-67
2023/10/06 00:07:25;;;;;;;6.05;1.65;;;;;;;14.89;100.00;99971.56;5144637;27;20528;-67
2023/10/06 00:09:55;;;;;;;6.18;1.50;;;;;;;14.87;100.00;99973.44;5145522;27;20495;-67
2023/10/06 00:12:25;;;;;;;8.38;1.73;;;;;;;14.78;100.00;99962.59;5130097;27;20061;-67
2023/10/06 00:14:53;;;;;;;4.63;1.48;;;;;;;14.90;100.00;99965.34;5148621;27;20422;-67
2023/10/06 00:17:21;;;;;;;7.70;2.00;;;;;;;14.85;100.00;99970.91;5142137;27;20050;-67
2023/10/06 00:19:55;;;;;;;8.55;1.90;;;;;;;14.85;100.00;99957.75;5131811;27;20135;-67
2023/10/06 00:22:26;;;;;;;4.57;1.25;;;;;;;14.84;100.00;99948.16;5140194;27;20047;-67
2023/10/06 00:24:59;;;;;;;7.50;1.40;;;;;;;14.76;100.00;99951.28;5125309;27;20084;-67
2023/10/06 00:27:29;;;;;;;4.93;1.40;;;;;;;14.79;100.00;99951.09;5129513;27;20043;-67
2023/10/06 00:29:56;;;;;;;6.70;1.35;;;;;;;14.79;100.00;99930.00;5122009;27;20051;-67
2023/10/06 00:32:27;;;;;;;3.85;1.25;;;;;;;14.77;100.00;99941.63;5125814;27;20510;-67
2023/10/06 00:35:08;;;;;;;3.47;1.35;;;;;;;14.82;100.00;99955.34;5124188;27;20131;-67
2023/10/06 00:37:39;;;;;;;4.60;1.27;;;;;;;14.89;100.00;99953.97;5127509;27;20463;-67
2023/10/06 00:40:11;;;;;;;3.47;1.10;;;;;;;14.92;100.00;99955.53;5126692;27;20052;-67
2023/10/06 00:42:38;;;;;;;2.58;1.05;;;;;;;14.82;100.00;99947.44;5135452;27;20043;-67
2023/10/06 00:45:07;;;;;;;4.00;1.40;;;;;;;14.66;100.00;99931.81;5137858;27;20047;-67
2023/10/06 00:47:38;;;;;;;6.03;1.42;;;;;;;14.81;100.00;99940.47;5142551;27;20045;-67
2023/10/06 00:50:11;;;;;;;3.63;1.02;;;;;;;14.72;100.00;99930.53;5136950;27;20046;-67
2023/10/06 00:52:39;;;;;;;2.28;1.00;;;;;;;14.73;100.00;99925.19;5143598;27;20058;-67
2023/10/06 00:55:11;;;;;;;4.22;1.10;;;;;;;14.63;100.00;99910.94;5135036;27;20039;-67
2023/10/06 00:57:40;;;;;;;1.90;0.90;;;;;;;14.56;100.00;99907.84;5121165;27;20039;-67
2023/10/06 01:00:21;;;;;;;3.20;1.13;;;;;;;14.71;100.00;99921.78;5130619;27;20379;-67
2023/10/06 01:02:48;;;;;;;3.83;1.20;;;;;;;14.75;100.00;99917.16;5127894;27;20401;-67
2023/10/06 01:05:16;;;;;;;4.00;0.90;;;;;;;14.86;100.00;99919.91;5132478;27;20367;-67
2023/10/06 01:07:46;;;;;;;2.03;0.82;;;;;;;14.76;100.00;99903.03;5118761;27;20411;-67
2023/10/06 01:10:27;;;;;;;4.63;1.13;;;;;;;14.71;100.00;99903.34;5129943;27;20119;-67
2023/10/06 01:12:56;;;;;;;2.65;1.00;;;;;;;14.58;100.00;99902.50;5115320;27;20522;-67
2023/10/06 01:15:29;;;;;;;2.47;0.90;;;;;;;14.69;100.00;99897.31;5144821;27;20043;-67
2023/10/06 01:17:58;;;;;;;4.80;0.97;;;;;;;14.59;100.00;99898.94;5129852;27;20100;-67
2023/10/06 01:20:42;;;;;;;2.17;0.90;;;;;;;14.56;100.00;99883.28;5125224;27;20491;-67
2023/10/06 01:23:20;;;;;;;5.13;1.13;;;;;;;14.49;100.00;99867.06;5148409;27;20042;-67
2023/10/06 01:25:49;;;;;;;2.97;1.15;;;;;;;14.57;100.00;99887.59;5151571;27;20472;-67
2023/10/06 01:28:16;;;;;;;3.53;1.05;;;;;;;14.71;100.00;99876.97;5132876;27;20510;-67
2023/10/06 01:30:42;;;;;;;7.13;1.50;;;;;;;14.68;100.00;99884.25;5144180;27;20042;-67
2023/10/06 01:33:10;;;;;;;3.22;1.40;;;;;;;14.62;100.00;99869.72;5143005;27;20645;-68
2023/10/06 01:35:42;;;;;;;5.18;1.20;;;;;;;14.69;100.00;99864.88;5131632;27;20377;-67
2023/10/06 01:38:24;;;;;;;2.47;0.88;;;;;;;14.66;100.00;99867.72;5129250;27;20047;-67
2023/10/06 01:40:54;;;;;;;5.53;1.30;;;;;;;14.60;100.00;99869.81;5135669;27;20472;-67
2023/10/06 01:43:29;;;;;;;7.43;1.40;;;;;;;14.33;100.00;99853.25;5129519;27;20738;-67
2023/10/06 01:45:59;;;;;;;5.05;1.17;;;;;;;14.48;100.00;99875.88;5129542;27;20043;-67
2023/10/06 01:48:30;;;;;;;4.10;1.05;;;;;;;14.53;100.00;99873.78;5117286;27;20489;-67
2023/10/06 01:50:57;;;;;;;3.92;1.08;;;;;;;14.46;100.00;99876.94;5119751;27;20126;-67
2023/10/06 01:53:31;;;;;;;3.35;1.05;;;;;;;14.53;100.00;99870.31;5129143;27;20074;-67
2023/10/06 01:56:01;;;;;;;1.77;0.82;;;;;;;14.57;100.00;99877.06;5129710;27;20054;-67
2023/10/06 01:58:27;;;;;;;4.05;1.08;;;;;;;14.51;100.00;99885.38;5127689;27;20058;-67
2023/10/06 02:00:54;;;;;;;2.78;1.00;;;;;;;14.48;100.00;99872.41;5128330;27;20058;-67
2023/10/06 02:03:21;;;;;;;4.57;1.20;;;;;;;14.53;100.00;99878.22;5129927;27;20064;-67
2023/10/06 02:05:54;;;;;;;3.53;1.10;;;;;;;14.52;100.00;99885.28;5129934;27;20415;-67
2023/10/06 02:08:23;;;;;;;3.35;1.10;;;;;;;14.49;100.00;99874.94;5120906;27;20047;-67
2023/10/06 02:10:50;;;;;;;4.32;1.30;;;;;;;14.48;100.00;99875.88;5126163;27;20051;-67
2023/10/06 02:13:21;;;;;;;7.57;1.90;;;;;;;14.43;100.00;99878.00;5130167;27;20401;-67
2023/10/06 02:16:03;;;;;;;4.90;1.08;;;;;;;14.41;100.00;99878.13;5139909;27;20137;-67
2023/10/06 02:18:39;;;;;;;4.03;1.33;;;;;;;14.43;100.00;99878.00;5125824;27;20683;-67
2023/10/06 02:21:11;;;;;;;3.50;1.10;;;;;;;14.50;100.00;99881.06;5128400;27;20055;-67
2023/10/06 02:23:40;;;;;;;3.35;1.10;;;;;;;14.40;100.00;99881.69;5129695;28;20051;-67
2023/10/06 02:26:09;;;;;;;5.88;1.38;;;;;;;14.40;100.00;99888.75;5129380;27;20135;-67
2023/10/06 02:28:43;;;;;;;4.40;1.02;;;;;;;14.41;100.00;99878.13;5128121;27;20042;-67
2023/10/06 02:31:13;;;;;;;3.22;0.95;;;;;;;14.41;100.00;99880.75;5119189;27;20051;-67
2023/10/06 02:33:41;;;;;;;4.03;1.10;;;;;;;14.38;100.00;99878.31;5129372;27;20078;-67
2023/10/06 02:36:23;;;;;;;4.55;1.00;;;;;;;14.35;100.00;99865.34;5141132;27;20047;-67
2023/10/06 02:38:51;;;;;;;4.65;1.38;;;;;;;14.33;100.00;99855.88;5121877;27;20403;-67
2023/10/06 02:41:23;;;;;;;3.90;1.10;;;;;;;14.20;100.00;99854.06;5139709;27;20051;-67
2023/10/06 02:43:51;;;;;;;6.10;1.33;;;;;;;14.14;100.00;99861.50;5132046;27;20051;-67
2023/10/06 02:46:25;;;;;;;5.10;1.58;;;;;;;14.13;100.00;99871.22;5141463;27;20058;-67
2023/10/06 02:48:53;;;;;;;3.13;0.90;;;;;;;14.24;100.00;99876.59;5119146;27;20044;-67
2023/10/06 02:51:43;;;;;;;4.50;1.10;;;;;;;14.30;100.00;99880.59;5132890;27;20047;-66
2023/10/06 02:54:21;;;;;;;2.75;1.00;;;;;;;14.33;100.00;99871.66;5132908;27;20038;-67
2023/10/06 02:56:50;;;;;;;5.28;1.00;;;;;;;14.20;100.00;99875.13;5136739;27;20047;-68
2023/10/06 02:59:24;;;;;;;4.53;1.55;;;;;;;14.28;100.00;99874.59;5115020;27;20049;-68
2023/10/06 03:01:52;;;;;;;3.97;1.13;;;;;;;14.37;100.00;99884.50;5142208;27;20333;-67
2023/10/06 03:04:21;;;;;;;4.70;1.02;;;;;;;14.32;100.00;99880.50;5145667;27;20053;-67
2023/10/06 03:06:55;;;;;;;6.60;1.52;;;;;;;14.19;100.00;99868.16;5132620;27;20560;-67
2023/10/06 03:09:57;;;;;;;2.83;0.90;;;;;;;14.29;100.00;99873.66;5145262;27;20350;-67
2023/10/06 03:12:26;;;;;;;3.88;1.10;;;;;;;14.23;100.00;99879.31;5118289;27;20051;-68
2023/10/06 03:15:00;;;;;;;5.40;1.30;;;;;;;14.15;100.00;99887.75;5149039;27;20038;-68
2023/10/06 03:17:29;;;;;;;4.57;1.20;;;;;;;14.28;100.00;99887.75;5140113;27;20158;-68
2023/10/06 03:20:10;;;;;;;4.60;1.38;;;;;;;14.06;100.00;99877.81;5126929;27;20519;-67
2023/10/06 03:22:38;;;;;;;2.78;1.00;;;;;;;14.22;100.00;99880.28;5125204;27;20055;-68
2023/10/06 03:25:15;;;;;;;3.55;1.08;;;;;;;14.28;100.00;99889.56;5146018;27;20258;-67
2023/10/06 03:27:42;;;;;;;5.45;1.50;;;;;;;14.21;100.00;99891.75;5129281;27;20053;-67
2023/10/06 03:30:18;;;;;;;4.90;1.00;;;;;;;14.24;100.00;99878.41;5123517;27;20055;-68
2023/10/06 03:32:49;;;;;;;5.47;1.00;;;;;;;14.15;100.00;99889.53;5139940;27;20047;-67
2023/10/06 03:35:35;;;;;;;8.90;1.50;;;;;;;14.11;100.00;99896.78;5134004;27;20078;-68
2023/10/06 03:38:27;;;;;;;4.55;1.10;;;;;;;14.17;100.00;99879.75;5117305;27;20086;-67
2023/10/06 03:43:40;;;;;;;4.63;1.00;;;;;;;14.24;100.00;99902.09;5138984;27;20050;-68
2023/10/06 03:46:08;;;;;;;3.35;1.13;;;;;;;14.27;100.00;99901.03;5130742;27;20051;-67
2023/10/06 03:48:36;;;;;;;4.35;1.13;;;;;;;14.17;100.00;99896.38;5137635;27;20057;-68
2023/10/06 03:51:02;;;;;;;4.45;1.20;;;;;;;14.18;100.00;99903.34;5131779;27;20067;-67
2023/10/06 03:53:29;;;;;;;5.03;1.38;;;;;;;13.97;100.00;99875.78;5131965;27;20051;-68
2023/10/06 03:55:57;;;;;;;4.57;1.48;;;;;;;14.04;100.00;99895.47;5131845;27;20039;-68
2023/10/06 03:58:31;;;;;;;4.35;1.10;;;;;;;14.07;100.00;99902.34;5131170;27;20476;-67
2023/10/06 04:01:07;;;;;;;5.43;1.20;;;;;;;14.01;100.00;99893.91;5132329;27;20420;-68
2023/10/06 04:03:34;;;;;;;3.00;0.93;;;;;;;13.89;100.00;99888.59;5132199;27;20043;-68
2023/10/06 04:06:03;;;;;;;3.72;1.20;;;;;;;13.88;100.00;99895.63;5126694;27;20051;-67
2023/10/06 04:08:30;;;;;;;5.10;1.20;;;;;;;13.85;100.00;99894.06;5124488;27;20047;-67
2023/10/06 04:10:58;;;;;;;5.00;1.20;;;;;;;14.00;100.00;99896.63;5132019;27;20054;-67
2023/10/06 04:13:25;;;;;;;5.10;1.50;;;;;;;13.96;100.00;99893.34;5130267;27;20108;-67
2023/10/06 04:15:53;;;;;;;3.70;1.00;;;;;;;13.98;100.00;99893.25;5137258;27;20053;-68
2023/10/06 04:18:24;;;;;;;5.25;1.00;;;;;;;13.90;100.00;99898.16;5141505;27;20073;-67
2023/10/06 04:20:52;;;;;;;3.58;1.10;;;;;;;13.97;100.00;99899.47;5130282;27;20472;-67
2023/10/06 04:23:22;;;;;;;4.72;1.27;;;;;;;13.88;100.00;99893.00;5142314;27;20050;-67
2023/10/06 04:25:57;;;;;;;4.07;1.02;;;;;;;13.86;100.00;99894.91;5133374;27;20039;-67
2023/10/06 04:28:29;;;;;;;4.88;1.20;;;;;;;13.79;100.00;99885.72;5129590;27;20048;-67
2023/10/06 04:31:00;;;;;;;5.07;1.23;;;;;;;13.74;100.00;99874.63;5134467;27;20061;-67
2023/10/06 04:33:30;;;;;;;5.20;1.08;;;;;;;13.65;100.00;99881.34;5130344;27;20048;-67
2023/10/06 04:36:07;;;;;;;3.05;1.10;;;;;;;13.78;100.00;99895.41;5130057;27;20039;-67
2023/10/06 04:38:37;;;;;;;2.97;0.90;;;;;;;13.72;100.00;99894.94;5138910;27;20065;-68
2023/10/06 04:41:08;;;;;;;5.47;1.10;;;;;;;13.63;100.00;99888.47;5139298;27;20532;-68
2023/10/06 04:43:36;;;;;;;4.72;1.10;;;;;;;13.62;100.00;99899.97;5142942;27;20512;-67
2023/10/06 04:46:06;;;;;;;3.03;1.02;;;;;;;13.55;100.00;99882.88;5130397;27;20163;-67
2023/10/06 04:48:35;;;;;;;1.98;0.80;;;;;;;13.62;100.00;99895.53;5120000;27;20057;-67
2023/10/06 04:51:03;;;;;;;3.53;1.00;;;;;;;13.54;100.00;99905.69;5123510;27;20148;-67
2023/10/06 04:53:38;;;;;;;4.38;1.20;;;;;;;13.52;100.00;99891.78;5129898;27;20114;-67
2023/10/06 04:56:07;;;;;;;3.33;1.00;;;;;;;13.59;100.00;99900.97;5135456;27;20078;-67
2023/10/06 04:58:39;;;;;;;2.45;1.00;;;;;;;13.52;100.00;99904.09;5123156;27;20054;-67
2023/10/06 05:01:07;;;;;;;3.67;1.15;;;;;;;13.59;100.00;99906.25;5124516;27;20087;-67
2023/10/06 05:03:44;;;;;;;6.00;1.20;;;;;;;13.50;100.00;99909.47;5129586;27;20271;-67
2023/10/06 05:06:16;;;;;;;2.30;0.80;;;;;;;13.63;100.00;99901.63;5130345;27;20047;-68
2023/10/06 05:08:47;;;;;;;4.23;1.27;;;;;;;13.56;100.00;99897.72;5128377;27;20074;-67
2023/10/06 05:11:15;;;;;;;4.00;0.93;;;;;;;13.43;100.00;99897.63;5129592;27;20047;-67
2023/10/06 05:13:42;;;;;;;3.03;0.98;;;;;;;13.47;100.00;99889.47;5142387;27;20095;-67
2023/10/06 05:16:12;;;;;;;2.92;1.13;;;;;;;13.68;100.00;99908.28;5129710;27;20103;-67
2023/10/06 05:18:39;;;;;;;2.63;1.00;;;;;;;13.75;100.00;99900.00;5134846;27;20457;-68
2023/10/06 05:21:09;;;;;;;3.20;1.00;;;;;;;13.74;100.00;99893.91;5139963;27;20495;-68
2023/10/06 05:23:35;;;;;;;1.67;0.70;;;;;;;13.70;100.00;99894.19;5126998;27;20051;-67
2023/10/06 05:26:08;;;;;;;2.95;0.88;;;;;;;13.67;100.00;99890.00;5142253;27;20389;-67
2023/10/06 05:28:37;;;;;;;2.07;0.87;;;;;;;13.73;100.00;99892.22;5117458;27;20424;-67
2023/10/06 05:31:06;;;;;;;2.83;0.82;;;;;;;13.78;100.00;99884.88;5129302;27;20083;-67
2023/10/06 05:33:33;;;;;;;2.17;0.90;;;;;;;13.77;100.00;99885.81;5128692;27;20039;-68
2023/10/06 05:36:11;;;;;;;2.95;0.90;;;;;;;13.69;100.00;99890.72;5125283;27;20052;-67
2023/10/06 05:38:39;;;;;;;1.13;0.70;;;;;;;13.77;100.00;99883.19;5118612;27;20035;-67
2023/10/06 05:41:11;;;;;;;2.30;0.80;;;;;;;13.68;100.00;99894.28;5126364;27;20058;-67
2023/10/06 05:43:39;;;;;;;;;;;;;;;13.75;100.00;99902.66;5123659;27;20053;-67
2023/10/06 05:46:06;;;;;;;2.67;0.80;;;;;;;13.60;100.00;99896.59;5127318;27;20300;-67
2023/10/06 05:48:34;;;;;;;0.95;0.70;;;;;;;13.68;100.00;99886.41;5126476;27;20047;-67
2023/10/06 05:51:05;;;;;;;0.98;0.70;;;;;;;13.78;100.00;99907.72;5122455;27;20066;-67
2023/10/06 05:53:38;;;;;;;2.17;0.80;;;;;;;13.47;100.00;99899.13;5115098;27;20054;-67
2023/10/06 05:56:08;;;;;;;2.42;0.90;;;;;;;13.59;100.00;99898.34;5117841;27;20070;-67
2023/10/06 05:58:40;;;;;;;1.10;0.70;;;;;;;13.71;100.00;99909.88;5119948;27;20074;-67
2023/10/06 06:01:10;;;;;;;2.40;1.10;;;;;;;13.65;100.00;99894.47;5114822;27;20058;-67
2023/10/06 06:03:49;;;;;;;2.47;1.00;;;;;;;13.72;100.00;99894.94;5117774;28;20084;-67
2023/10/06 06:06:22;;;;;;;2.70;0.90;;;;;;;13.62;100.00;99900.81;5119700;27;20462;-67
2023/10/06 06:08:51;;;;;;;2.78;1.13;;;;;;;13.64;100.00;99904.16;5109745;28;20048;-67
2023/10/06 06:11:17;;;;;;;1.80;0.70;;;;;;;13.83;100.00;99900.38;5109253;28;20156;-67
2023/10/06 06:13:44;;;;;;;0.90;0.70;;;;;;;13.73;100.00;99904.53;5126682;27;20047;-67
2023/10/06 06:16:24;;;;;;;2.08;0.70;;;;;;;13.86;100.00;99894.91;5125857;27;20052;-67
2023/10/06 06:18:51;;;;;;;2.85;1.00;;;;;;;13.76;100.00;99907.81;5129224;28;20039;-68
2023/10/06 06:21:24;;;;;;;1.65;0.80;;;;;;;13.74;100.00;99890.41;5127354;27;20080;-67
2023/10/06 06:23:53;;;;;;;1.80;0.80;;;;;;;13.76;100.00;99881.50;5121286;27;20043;-67
2023/10/06 06:26:20;;;;;;;2.08;0.90;;;;;;;13.76;100.00;99891.19;5118478;27;20044;-68
2023/10/06 06:28:47;;;;;;;2.25;0.82;;;;;;;13.75;100.00;99889.50;5115901;27;20052;-67
2023/10/06 06:31:18;;;;;;;2.58;0.85;;;;;;;13.91;100.00;99900.72;5129241;27;20232;-67
2023/10/06 06:33:48;;;;;;;1.38;0.73;;;;;;;13.90;100.00;99888.50;5119577;27;20043;-67
2023/10/06 06:36:15;;;;;;;1.17;0.88;;;;;;;13.96;100.00;99888.09;5113171;27;20046;-68
2023/10/06 06:38:42;;;;;;;0.93;0.70;;;;;;;13.91;100.00;99886.72;5121725;27;20047;-67
2023/10/06 06:41:08;;;;;;;1.95;0.80;;;;;;;13.86;100.00;99889.63;5133139;27;20051;-67
2023/10/06 06:43:35;;;;;;;3.83;0.85;;;;;;;13.76;100.00;99888.56;5126866;27;20548;-67
2023/10/06 06:46:02;;;;;;;2.13;0.80;;;;;;;13.81;100.00;99897.84;5141388;27;20092;-67
2023/10/06 06:48:28;;;;;;;1.52;0.80;;;;;;;13.83;100.00;99895.94;5130470;27;20476;-68
2023/10/06 06:50:55;;;;;;;1.73;1.13;;;;;;;13.80;100.00;99896.13;5129550;27;20052;-67
2023/10/06 06:53:22;;;;;;;1.35;0.70;;;;;;;13.81;100.00;99896.97;5131181;27;20500;-67
2023/10/06 06:55:48;;;;;;;2.60;1.08;;;;;;;13.87;100.00;99896.59;5122823;27;20051;-67
2023/10/06 06:58:16;;;;;;;1.17;0.70;;;;;;;13.86;100.00;99900.16;5126297;27;20043;-67
2023/10/06 07:00:46;;;;;;;2.45;0.88;;;;;;;13.89;100.00;99893.88;5119834;27;20131;-67
2023/10/06 07:03:14;;;;;;;2.30;0.85;;;;;;;13.93;100.00;99898.81;5128029;27;20038;-67
2023/10/06 07:05:42;;;;;;;2.25;1.20;;;;;;;14.03;100.00;99889.38;5121649;27;20039;-67
2023/10/06 07:08:11;;;;;;;3.03;1.02;;;;;;;14.00;100.00;99888.75;5128067;27;20349;-67
2023/10/06 07:10:38;;;;;;;1.13;0.90;;;;;;;14.11;100.00;99906.47;5126584;27;20078;-67
2023/10/06 07:13:06;;;;;;;2.50;0.80;;;;;;;13.87;100.00;99886.06;5129462;27;20129;-67
2023/10/06 07:15:33;;;;;;;2.50;0.75;;;;;;;14.10;100.00;99902.16;5125509;27;20053;-67
2023/10/06 07:18:00;;;;;;;3.03;1.10;;;;;;;14.21;100.00;99918.91;5116928;27;20417;-67
2023/10/06 07:20:30;;;;;;;0.70;0.70;;;;;;;14.33;100.00;99924.34;5130699;27;20130;-67
2023/10/06 07:23:00;;;;;;;3.20;0.80;;;;;;;14.38;100.00;99924.88;5114921;27;20087;-67
2023/10/06 07:25:28;;;;;;;1.25;0.80;;;;;;;14.45;100.00;99923.53;5115508;27;20088;-67
2023/10/06 07:27:59;;;;;;;2.05;0.85;;;;;;;14.48;100.00;99931.19;5112374;27;20055;-67
2023/10/06 07:30:28;;;;;;;1.40;0.70;;;;;;;14.63;100.00;99931.19;5127439;27;20051;-67
2023/10/06 07:32:55;;;;;;;1.02;0.70;;;;;;;14.62;100.00;99930.31;5130858;27;20458;-67
2023/10/06 07:38:13;;;;;;;2.20;0.80;;;;;;;14.78;100.00;99954.69;5130972;27;20051;-67
2023/10/06 07:40:42;;;;;;;2.13;0.70;;;;;;;14.76;100.00;99953.94;5121562;27;20063;-67
2023/10/06 07:43:10;;;;;;;1.67;0.70;;;;;;;14.79;100.00;99959.00;5126624;27;20055;-67
2023/10/06 07:45:37;;;;;;;1.48;0.70;;;;;;;14.93;100.00;99965.16;5132892;27;20043;-67
2023/10/06 07:48:09;;;;;;;2.15;0.80;;;;;;;14.93;100.00;99963.34;5126546;27;20047;-68
2023/10/06 07:50:37;;;;;;;1.58;0.60;;;;;;;14.98;100.00;99961.25;5132711;27;20096;-67
2023/10/06 07:53:05;;;;;;;2.88;1.00;;;;;;;14.98;100.00;99955.97;5125469;27;20065;-67
2023/10/06 07:55:31;;;;;;;3.55;0.82;;;;;;;14.88;100.00;99962.81;5125626;27;20047;-67
2023/10/06 07:58:00;;;;;;;2.35;0.80;;;;;;;14.73;100.00;99951.53;5124812;27;20047;-67
2023/10/06 08:00:28;;;;;;;3.03;0.80;;;;;;;15.00;100.00;99955.88;5124076;27;20047;-67
2023/10/06 08:02:55;;;;;;;3.63;1.05;;;;;;;15.01;100.00;99968.09;5123957;27;20048;-67
2023/10/06 08:05:22;;;;;;;3.85;0.93;;;;;;;15.07;100.00;99967.69;5131911;27;20039;-67
2023/10/06 08:07:52;;;;;;;1.20;0.70;;;;;;;15.14;100.00;99976.03;5132046;27;20096;-68
2023/10/06 08:10:19;;;;;;;1.10;0.60;;;;;;;15.04;100.00;99957.34;5115734;27;20052;-67
2023/10/06 08:12:51;;;;;;;1.70;0.70;;;;;;;15.07;100.00;99980.88;5124254;27;20054;-67
2023/10/06 08:15:21;;;;;;;1.00;0.70;;;;;;;14.91;100.00;99967.00;5130980;27;20047;-67
2023/10/06 08:17:50;;;;;;;1.88;0.73;;;;;;;15.12;100.00;99978.75;5123829;27;20480;-67
2023/10/06 08:20:17;;;;;;;2.47;0.80;;;;;;;14.94;100.00;99974.72;5128182;27;20100;-67
2023/10/06 08:22:46;;;;;;;1.65;0.70;;;;;;;14.98;100.00;99976.22;5131780;27;20051;-68
2023/10/06 08:25:18;;;;;;;2.35;0.80;;;;;;;15.05;100.00;99982.75;5122965;27;20090;-67
2023/10/06 08:27:47;;;;;;;2.08;0.77;;;;;;;15.12;100.00;99986.66;5124838;27;20053;-67
2023/10/06 08:30:19;;;;;;;1.30;0.60;;;;;;;15.07;100.00;99980.88;5132588;27;20043;-67
2023/10/06 08:32:52;;;;;;;3.58;0.90;;;;;;;15.26;100.00;99983.06;5123722;27;20050;-67
2023/10/06 08:35:20;;;;;;;2.33;0.90;;;;;;;15.34;100.00;99977.25;5131886;27;20094;-67
2023/10/06 08:37:49;;;;;;;2.72;0.80;;;;;;;15.16;100.00;99980.22;5124389;27;20047;-67
2023/10/06 08:40:19;;;;;;;1.95;0.70;;;;;;;15.32;100.00;99979.16;5127673;27;20101;-68
2023/10/06 08:42:54;;;;;;;1.20;0.70;;;;;;;15.51;100.00;99974.28;5131245;27;20054;-68
2023/10/06 08:45:22;;;;;;;2.15;0.80;;;;;;;15.34;100.00;99972.00;5131768;27;20049;-67
2023/10/06 08:47:59;;;;;;;3.00;1.00;;;;;;;15.41;100.00;99967.97;5129523;27;20043;-67
2023/10/06 08:50:33;;;;;;;1.10;0.70;;;;;;;15.65;100.00;99972.47;5126796;27;20082;-68
2023/10/06 08:53:04;;;;;;;1.73;0.85;;;;;;;15.72;100.00;99969.31;5121415;27;20052;-67
2023/10/06 08:55:32;;;;;;;3.25;0.90;;;;;;;15.56;100.00;99976.59;5125108;27;20047;-68
2023/10/06 08:57:59;;;;;;;2.83;0.90;;;;;;;15.67;100.00;99973.19;5123284;27;20143;-67
2023/10/06 09:00:34;;;;;;;2.20;0.80;;;;;;;15.62;100.00;99967.44;5130888;27;20594;-67
2023/10/06 09:03:07;;;;;;;1.33;0.70;;;;;;;15.73;100.00;99960.41;5131788;27;20131;-67
2023/10/06 09:05:39;;;;;;;1.67;0.70;;;;;;;15.80;100.00;99970.56;5123719;27;20040;-67
2023/10/06 09:08:08;;;;;;;2.05;0.80;;;;;;;15.83;100.00;99973.84;5124292;27;20058;-67
2023/10/06 09:10:40;;;;;;;5.03;1.13;;;;;;;15.77;100.00;99981.34;5127809;27;20129;-67
2023/10/06 09:13:11;;;;;;;0.98;0.60;;;;;;;15.78;100.00;99962.75;5128079;27;20060;-68
2023/10/06 09:15:40;;;;;;;4.65;0.80;;;;;;;15.67;100.00;99978.47;5128058;27;20130;-67
2023/10/06 09:18:21;;;;;;;2.28;0.70;;;;;;;15.94;100.00;99981.81;5129491;27;20484;-67
2023/10/06 09:20:50;;;;;;;3.20;0.90;;;;;;;15.74;100.00;99985.91;5128505;27;20082;-67
2023/10/06 09:23:34;;;;;;;1.55;0.70;;;;;;;15.85;100.00;99979.00;5130690;27;20043;-67
2023/10/06 09:26:02;;;;;;;2.70;0.90;;;;;;;15.90;100.00;99987.41;5125232;27;20049;-68
2023/10/06 09:28:30;;;;;;;1.98;0.70;;;;;;;16.06;100.00;99987.16;5123285;27;20046;-67
2023/10/06 09:31:01;;;;;;;2.55;0.90;;;;;;;15.83;100.00;99978.25;5121816;27;20050;-68
2023/10/06 09:33:41;;;;;;;2.22;0.90;;;;;;;15.87;100.00;99983.22;5130306;27;20464;-67
2023/10/06 09:36:16;;;;;;;2.42;0.90;;;;;;;15.91;100.00;99979.38;5121516;27;21219;-68
2023/10/06 09:39:37;;;;;;;1.45;0.80;;;;;;;15.96;100.00;99994.06;5124084;27;20142;-67
2023/10/06 09:41:57;;;;;;;2.15;0.90;;;;;;;16.08;100.00;99999.31;5126836;27;20421;-67
2023/10/06 09:44:26;;;;;;;1.75;0.70;;;;;;;15.99;100.00;99988.56;5129873;27;20054;-67
2023/10/06 09:46:53;;;;;;;1.45;0.70;;;;;;;16.06;100.00;99987.16;5150989;27;20468;-67
2023/10/06 09:49:21;;;;;;;1.50;0.70;;;;;;;15.88;100.00;99992.84;5116576;27;20437;-67
2023/10/06 09:51:51;;;;;;;1.55;0.77;;;;;;;16.02;100.00;99996.25;5115602;27;20046;-67
2023/10/06 09:54:20;;;;;;;1.27;0.70;;;;;;;16.00;100.00;100000.81;5118615;27;20134;-67
2023/10/06 09:56:47;;;;;;;2.35;0.80;;;;;;;15.99;100.00;99994.69;5134024;27;20097;-67
2023/10/06 09:59:15;;;;;;;2.25;0.70;;;;;;;15.97;100.00;99986.06;5119544;27;20048;-67
2023/10/06 10:01:42;;;;;;;1.90;0.80;;;;;;;15.92;100.00;99993.47;5129971;27;20324;-67
2023/10/06 10:04:11;;;;;;;1.92;0.70;;;;;;;15.99;100.00;99992.06;5134464;27;20048;-67
2023/10/06 10:06:45;;;;;;;2.58;1.00;;;;;;;15.93;100.00;99997.75;5138523;27;20039;-67
2023/10/06 10:09:16;;;;;;;3.22;0.95;;;;;;;16.11;100.00;100014.94;5118141;27;20043;-67
2023/10/06 10:12:01;;;;;;;3.30;0.73;;;;;;;16.17;100.00;100004.88;5131171;27;20050;-68
2023/10/06 10:14:49;;;;;;;1.17;0.70;;;;;;;16.10;100.00;100020.31;5120055;27;20488;-67
2023/10/06 10:17:37;;;;;;;2.20;0.90;;;;;;;16.07;100.00;100021.38;5132447;27;20128;-68
2023/10/06 10:20:09;;;;;;;2.95;0.98;;;;;;;16.30;100.00;100024.16;5142276;27;20051;-67
2023/10/06 10:22:36;;;;;;;2.47;0.80;;;;;;;16.60;100.00;100028.16;5134791;27;20164;-67
2023/10/06 10:25:05;;;;;;;4.30;0.82;;;;;;;16.84;100.00;100025.53;5134343;27;20217;-67
2023/10/06 10:28:17;;;;;;;1.63;0.70;;;;;;;17.03;100.00;100031.09;5121724;27;20400;-68
2023/10/06 10:30:53;;;;;;;2.28;0.80;;;;;;;17.12;100.00;100021.59;5137708;27;20076;-68
2023/10/06 10:33:22;;;;;;;2.70;0.80;;;;;;;17.36;100.00;100025.97;5132205;27;20039;-68
2023/10/06 10:36:17;;;;;;;2.10;0.70;;;;;;;17.61;100.00;100036.34;5133091;27;20479;-67
2023/10/06 10:38:45;;;;;;;1.85;0.70;;;;;;;17.51;100.00;100045.13;5120737;27;20082;-67
2023/10/06 10:41:16;;;;;;;1.05;0.60;;;;;;;17.44;100.00;100039.44;5133407;27;20043;-68
2023/10/06 10:43:45;;;;;;;0.85;0.60;;;;;;;17.53;100.00;100038.75;5127738;27;20146;-68
2023/10/06 10:46:12;;;;;;;1.40;0.70;;;;;;;17.70;100.00;100024.19;5134208;27;20350;-68
2023/10/06 10:48:47;;;;;;;0.70;0.60;;;;;;;17.84;100.00;100028.38;5133907;27;20406;-67
2023/10/06 10:51:15;;;;;;;1.35;0.60;;;;;;;18.10;100.00;100038.75;5115012;27;20059;-67
2023/10/06 10:53:45;;;;;;;3.13;0.80;;;;;;;17.86;100.00;100026.50;5134147;27;20040;-68
2023/10/06 10:56:18;;;;;;;1.05;0.60;;;;;;;17.97;100.00;100052.97;5134458;27;20088;-68
2023/10/06 10:58:44;;;;;;;1.75;0.68;;;;;;;18.03;100.00;100054.28;5131383;27;20092;-68
2023/10/06 11:01:37;;;;;;;0.98;0.60;;;;;;;18.03;100.00;100046.34;5140231;27;20442;-68
2023/10/06 11:04:29;;;;;;;3.53;0.77;;;;;;;18.11;100.00;100046.56;5124416;27;20135;-67
2023/10/06 11:06:58;;;;;;;1.60;0.60;;;;;;;18.13;100.00;100042.00;5132684;27;20050;-68
2023/10/06 11:09:36;;;;;;;1.95;0.70;;;;;;;18.13;100.00;100035.84;5125017;27;20051;-67
2023/10/06 11:12:18;;;;;;;2.88;0.70;;;;;;;18.06;100.00;100037.31;5141348;27;20076;-67
2023/10/06 11:15:02;;;;;;;4.80;0.70;;;;;;;17.94;100.00;100055.03;5142369;27;20047;-68
2023/10/06 11:17:31;;;;;;;1.10;0.60;;;;;;;18.01;100.00;100051.75;5117840;27;20051;-68
2023/10/06 11:20:27;;;;;;;1.48;0.60;;;;;;;18.02;100.00;100068.50;5127066;27;20051;-68
2023/10/06 11:22:56;;;;;;;1.35;0.60;;;;;;;18.23;100.00;100059.81;5122885;27;20055;-68
2023/10/06 11:25:29;;;;;;;5.10;0.70;;;;;;;18.05;100.00;100060.31;5123081;27;20059;-67
2023/10/06 11:28:08;;;;;;;0.65;0.57;;;;;;;18.08;100.00;100073.31;5124744;27;20074;-68
2023/10/06 11:30:40;;;;;;;2.83;0.70;;;;;;;18.18;100.00;100073.41;5120982;27;20082;-67
2023/10/06 11:33:09;;;;;;;0.77;0.52;;;;;;;18.18;100.00;100087.50;5148086;27;20166;-68
2023/10/06 11:35:38;;;;;;;1.20;0.63;;;;;;;18.21;100.00;100074.00;5117832;27;20138;-68
2023/10/06 11:38:07;;;;;;;0.57;0.50;;;;;;;18.06;100.00;100088.50;5123643;27;20485;-68
2023/10/06 11:40:35;;;;;;;2.38;0.50;;;;;;;18.16;100.00;100085.94;5127555;27;20055;-68
2023/10/06 11:43:30;;;;;;;0.50;0.50;;;;;;;18.12;100.00;100079.22;5132659;27;20053;-68
2023/10/06 11:46:02;;;;;;;2.70;0.65;;;;;;;18.06;100.00;100072.59;5130954;27;20047;-68
2023/10/06 11:48:33;;;;;;;1.98;0.60;;;;;;;18.10;100.00;100074.03;5120844;27;20058;-68
2023/10/06 11:51:00;;;;;;;0.55;0.50;;;;;;;18.08;100.00;100078.59;5132907;27;20077;-68